createdAt,value
2022-08-26T00:01:56.866Z,6.40
2022-08-26T00:04:25.480Z,6.05
2022-08-26T00:06:54.753Z,6.40
2022-08-26T00:09:23.560Z,6.93
2022-08-26T00:11:52.554Z,6.90
2022-08-26T00:14:19.387Z,7.65
2022-08-26T00:16:47.479Z,5.95
2022-08-26T00:19:19.132Z,5.25
2022-08-26T00:21:48.651Z,5.00
2022-08-26T00:24:16.784Z,6.53
2022-08-26T00:26:44.207Z,7.07
2022-08-26T00:29:12.399Z,5.82
2022-08-26T00:31:40.790Z,6.93
2022-08-26T00:34:09.550Z,6.78
2022-08-26T00:36:39.790Z,6.07
2022-08-26T00:39:07.749Z,6.07
2022-08-26T00:41:36.007Z,6.30
2022-08-26T00:44:03.155Z,6.13
2022-08-26T00:46:33.709Z,6.15
2022-08-26T00:49:11.984Z,6.47
2022-08-26T00:51:52.335Z,6.32
2022-08-26T00:54:22.936Z,5.63
2022-08-26T00:56:59.917Z,5.47
2022-08-26T00:59:29.291Z,7.10
2022-08-26T01:02:02.895Z,5.53
2022-08-26T01:04:31.487Z,5.53
2022-08-26T01:07:00.491Z,5.63
2022-08-26T01:09:28.155Z,6.03
2022-08-26T01:11:57.636Z,5.75
2022-08-26T01:14:26.937Z,5.90
2022-08-26T01:16:54.570Z,6.00
2022-08-26T01:19:32.637Z,4.97
2022-08-26T01:22:05.579Z,6.65
2022-08-26T01:24:32.614Z,5.95
2022-08-26T01:27:05.324Z,6.80
2022-08-26T01:29:34.598Z,5.68
2022-08-26T01:32:05.102Z,5.80
2022-08-26T01:34:36.868Z,5.72
2022-08-26T01:37:17.123Z,6.88
2022-08-26T01:39:50.969Z,5.95
2022-08-26T01:42:21.193Z,7.10
2022-08-26T01:44:59.679Z,7.18
2022-08-26T01:47:30.204Z,6.18
2022-08-26T01:49:59.914Z,8.52
2022-08-26T01:52:29.314Z,8.10
2022-08-26T01:54:59.162Z,6.50
2022-08-26T01:57:27.284Z,6.32
2022-08-26T01:59:58.194Z,7.90
2022-08-26T02:02:25.091Z,7.35
2022-08-26T02:05:01.757Z,7.80
2022-08-26T02:07:29.486Z,6.88
2022-08-26T02:09:56.901Z,7.55
2022-08-26T02:12:25.899Z,8.85
2022-08-26T02:14:58.498Z,7.53
2022-08-26T02:17:33.884Z,7.75
2022-08-26T02:20:02.591Z,7.50
2022-08-26T02:22:30.920Z,7.32
2022-08-26T02:25:02.276Z,7.00
2022-08-26T02:27:33.698Z,7.75
2022-08-26T02:30:17.549Z,7.55
2022-08-26T02:32:45.293Z,7.30
2022-08-26T02:35:20.070Z,8.00
2022-08-26T02:37:49.423Z,6.65
2022-08-26T02:40:20.783Z,7.60
2022-08-26T02:42:49.156Z,8.27
2022-08-26T02:45:16.341Z,7.97
2022-08-26T02:47:52.894Z,8.15
2022-08-26T02:50:20.926Z,8.18
2022-08-26T02:52:48.536Z,8.70
2022-08-26T02:55:15.638Z,8.13
2022-08-26T02:57:42.881Z,8.60
2022-08-26T03:00:11.940Z,8.07
2022-08-26T03:02:38.780Z,8.00
2022-08-26T03:05:06.476Z,7.43
2022-08-26T03:07:33.353Z,7.60
2022-08-26T03:10:01.056Z,8.32
2022-08-26T03:12:34.548Z,7.90
2022-08-26T03:15:01.627Z,7.57
2022-08-26T03:17:28.465Z,7.55
2022-08-26T03:19:57.251Z,8.07
2022-08-26T03:22:25.247Z,8.18
2022-08-26T03:24:52.676Z,9.52
2022-08-26T03:27:19.505Z,7.85
2022-08-26T03:30:04.801Z,7.93
2022-08-26T03:32:31.645Z,7.93
2022-08-26T03:34:58.431Z,7.75
2022-08-26T03:37:25.224Z,7.60
2022-08-26T03:39:52.834Z,8.02
2022-08-26T03:42:21.332Z,7.97
2022-08-26T03:44:48.754Z,7.97
2022-08-26T03:47:15.833Z,7.60
2022-08-26T03:49:42.690Z,8.65
2022-08-26T03:52:10.526Z,7.03
2022-08-26T03:54:37.760Z,7.78
2022-08-26T03:57:04.809Z,8.60
2022-08-26T03:59:32.207Z,8.75
2022-08-26T04:01:59.049Z,7.93
2022-08-26T04:04:26.000Z,8.07
2022-08-26T04:07:01.001Z,8.70
2022-08-26T04:09:27.951Z,9.45
2022-08-26T04:11:55.661Z,9.65
2022-08-26T04:14:25.843Z,8.20
2022-08-26T04:16:55.402Z,9.10
2022-08-26T04:19:23.516Z,10.05
2022-08-26T04:21:53.118Z,8.45
2022-08-26T04:24:23.922Z,9.07
2022-08-26T04:26:51.523Z,8.82
2022-08-26T04:29:23.909Z,8.70
2022-08-26T04:31:55.227Z,9.18
2022-08-26T04:34:24.581Z,8.80
2022-08-26T04:36:54.225Z,9.07
2022-08-26T04:39:21.015Z,8.05
2022-08-26T04:41:48.820Z,8.65
2022-08-26T04:44:18.652Z,8.98
2022-08-26T04:46:45.817Z,8.07
2022-08-26T04:49:13.196Z,9.55
2022-08-26T04:51:40.355Z,7.57
2022-08-26T04:54:07.499Z,8.50
2022-08-26T04:56:39.874Z,7.70
2022-08-26T04:59:17.221Z,7.47
2022-08-26T05:01:48.674Z,6.97
2022-08-26T05:04:18.895Z,6.25
2022-08-26T05:06:49.554Z,7.65
2022-08-26T05:09:18.575Z,7.78
2022-08-26T05:11:48.582Z,5.95
2022-08-26T05:14:20.260Z,7.65
2022-08-26T05:16:47.974Z,6.32
2022-08-26T05:19:18.700Z,7.43
2022-08-26T05:21:47.118Z,7.40
2022-08-26T05:24:14.445Z,6.82
2022-08-26T05:26:41.337Z,6.45
2022-08-26T05:29:08.113Z,6.07
2022-08-26T05:31:35.584Z,6.50
2022-08-26T05:34:04.666Z,6.97
2022-08-26T05:36:34.926Z,6.38
2022-08-26T05:39:05.070Z,6.35
2022-08-26T05:41:36.168Z,7.85
2022-08-26T05:44:06.756Z,6.30
2022-08-26T05:46:35.136Z,5.60
2022-08-26T05:49:03.964Z,5.68
2022-08-26T05:51:31.072Z,5.97
2022-08-26T05:53:58.218Z,5.97
2022-08-26T05:56:27.555Z,7.28
2022-08-26T05:58:58.512Z,6.63
2022-08-26T06:01:28.431Z,6.63
2022-08-26T06:04:01.376Z,8.00
2022-08-26T06:06:34.700Z,6.10
2022-08-26T06:09:05.598Z,6.60
2022-08-26T06:11:33.426Z,6.22
2022-08-26T06:14:04.472Z,6.13
2022-08-26T06:16:34.751Z,7.13
2022-08-26T06:19:03.308Z,6.70
2022-08-26T06:21:33.523Z,6.70
2022-08-26T06:24:27.265Z,5.40
2022-08-26T06:27:01.492Z,7.40
2022-08-26T06:29:31.102Z,5.32
2022-08-26T06:31:58.426Z,5.40
2022-08-26T06:34:30.418Z,7.93
2022-08-26T06:36:59.772Z,5.65
2022-08-26T06:39:31.144Z,6.95
2022-08-26T06:41:59.282Z,6.13
2022-08-26T06:44:27.243Z,6.10
2022-08-26T06:46:54.222Z,7.53
2022-08-26T06:49:27.198Z,6.10
2022-08-26T06:52:00.898Z,6.60
2022-08-26T06:54:30.356Z,6.68
2022-08-26T06:56:57.560Z,6.20
2022-08-26T06:59:25.529Z,5.38
2022-08-26T07:01:52.605Z,5.10
2022-08-26T07:04:22.381Z,5.97
2022-08-26T07:06:52.647Z,6.00
2022-08-26T07:09:22.232Z,6.03
2022-08-26T07:11:49.609Z,5.90
2022-08-26T07:14:19.412Z,6.53
2022-08-26T07:16:49.714Z,6.43
2022-08-26T07:19:27.502Z,5.88
2022-08-26T07:22:02.157Z,5.28
2022-08-26T07:24:30.032Z,6.35
2022-08-26T07:27:02.955Z,5.57
2022-08-26T07:29:32.406Z,6.20
2022-08-26T07:31:59.921Z,6.07
2022-08-26T07:34:27.408Z,6.00
2022-08-26T07:36:55.251Z,5.72
2022-08-26T07:39:22.752Z,6.78
2022-08-26T07:41:50.428Z,6.85
2022-08-26T07:44:18.093Z,6.03
2022-08-26T07:46:52.060Z,4.97
2022-08-26T07:49:21.437Z,6.18
2022-08-26T07:51:49.806Z,5.38
2022-08-26T07:54:17.114Z,6.22
2022-08-26T07:56:44.648Z,5.80
2022-08-26T07:59:13.646Z,5.43
2022-08-26T08:01:41.437Z,5.30
2022-08-26T08:04:17.821Z,5.50
2022-08-26T08:06:45.817Z,5.93
2022-08-26T08:09:15.596Z,5.60
2022-08-26T08:11:45.223Z,5.57
2022-08-26T08:14:13.507Z,6.38
2022-08-26T08:16:45.933Z,5.38
2022-08-26T08:19:15.016Z,7.55
2022-08-26T08:21:43.434Z,5.35
2022-08-26T08:24:11.733Z,4.97
2022-08-26T08:26:39.407Z,4.50
2022-08-26T08:29:08.082Z,6.63
2022-08-26T08:34:22.907Z,4.63
2022-08-26T08:36:53.379Z,5.90
2022-08-26T08:39:22.020Z,5.00
2022-08-26T08:41:59.951Z,5.22
2022-08-26T08:47:19.934Z,3.88
2022-08-26T08:49:47.795Z,5.35
2022-08-26T08:52:29.802Z,4.30
2022-08-26T08:54:57.220Z,3.88
2022-08-26T08:57:55.926Z,4.63
2022-08-26T09:00:39.750Z,4.05
2022-08-26T09:03:48.235Z,4.35
2022-08-26T09:06:18.914Z,3.72
2022-08-26T09:08:50.477Z,4.13
2022-08-26T09:11:20.070Z,3.92
2022-08-26T09:13:53.302Z,4.28
2022-08-26T09:16:24.443Z,4.20
2022-08-26T09:19:11.290Z,4.00
2022-08-26T09:21:38.258Z,4.38
2022-08-26T09:24:06.307Z,4.68
2022-08-26T09:26:38.986Z,4.93
2022-08-26T09:29:11.585Z,4.07
2022-08-26T09:31:42.202Z,4.50
2022-08-26T09:34:17.269Z,3.65
2022-08-26T09:36:56.243Z,3.38
2022-08-26T09:39:22.985Z,3.90
2022-08-26T09:42:07.019Z,3.10
2022-08-26T09:44:35.724Z,3.60
2022-08-26T09:47:05.810Z,3.88
2022-08-26T09:49:36.287Z,4.35
2022-08-26T09:52:15.608Z,5.43
2022-08-26T09:54:46.127Z,4.53
2022-08-26T09:57:32.245Z,4.30
2022-08-26T10:00:01.332Z,4.15
2022-08-26T10:02:41.729Z,5.20
2022-08-26T10:05:18.974Z,3.95
2022-08-26T10:07:50.225Z,4.40
2022-08-26T10:10:35.340Z,4.30
2022-08-26T10:13:07.843Z,3.97
2022-08-26T10:16:00.929Z,5.60
2022-08-26T10:18:35.548Z,5.28
2022-08-26T10:21:23.451Z,4.72
2022-08-26T10:23:53.861Z,5.55
2022-08-26T10:26:53.406Z,5.13
2022-08-26T10:29:31.242Z,6.22
2022-08-26T10:32:03.432Z,4.95
2022-08-26T10:34:32.645Z,5.40
2022-08-26T10:37:14.932Z,5.35
2022-08-26T10:40:00.961Z,5.93
2022-08-26T10:42:33.280Z,6.40
2022-08-26T10:45:06.717Z,6.90
2022-08-26T10:47:47.695Z,6.10
2022-08-26T10:50:14.972Z,11.48
2022-08-26T10:53:09.341Z,6.47
2022-08-26T10:55:46.160Z,5.47
2022-08-26T10:58:32.010Z,5.68
2022-08-26T11:01:50.788Z,4.63
2022-08-26T11:04:22.371Z,8.50
2022-08-26T11:06:50.138Z,5.30
2022-08-26T11:09:45.198Z,5.43
2022-08-26T11:12:58.143Z,6.00
2022-08-26T11:15:25.074Z,6.47
2022-08-26T11:17:51.900Z,5.50
2022-08-26T11:20:27.868Z,5.70
2022-08-26T11:22:56.409Z,6.68
2022-08-26T11:25:30.170Z,5.80
2022-08-26T11:28:00.561Z,5.03
2022-08-26T11:30:42.778Z,5.50
2022-08-26T11:33:10.488Z,4.65
2022-08-26T11:35:37.754Z,5.03
2022-08-26T11:38:15.399Z,5.05
2022-08-26T11:40:42.750Z,4.57
2022-08-26T11:43:19.920Z,4.40
2022-08-26T11:46:08.644Z,4.45
2022-08-26T11:48:37.523Z,4.43
2022-08-26T11:51:09.880Z,3.65
2022-08-26T11:53:42.701Z,3.45
2022-08-26T11:56:17.543Z,3.38
2022-08-26T11:58:46.921Z,4.68
2022-08-26T12:01:25.971Z,3.28
2022-08-26T12:03:56.230Z,3.13
2022-08-26T12:06:28.423Z,4.00
2022-08-26T12:08:59.886Z,4.05
2022-08-26T12:11:34.117Z,3.60
2022-08-26T12:14:08.031Z,3.35
2022-08-26T12:16:38.746Z,3.58
2022-08-26T12:19:38.297Z,3.85
2022-08-26T12:22:27.682Z,4.05
2022-08-26T12:24:59.036Z,3.67
2022-08-26T12:27:34.764Z,2.60
2022-08-26T12:30:05.097Z,2.90
2022-08-26T12:32:37.327Z,3.95
2022-08-26T12:35:22.354Z,3.45
2022-08-26T12:37:53.233Z,3.53
2022-08-26T12:40:39.993Z,3.20
2022-08-26T12:43:08.453Z,2.97
2022-08-26T12:45:43.173Z,3.10
2022-08-26T12:48:29.465Z,4.50
2022-08-26T12:50:57.290Z,3.75
2022-08-26T12:53:27.196Z,3.28
2022-08-26T12:55:57.140Z,3.10
2022-08-26T12:58:35.024Z,3.83
2022-08-26T13:01:05.030Z,3.40
2022-08-26T13:03:34.770Z,3.55
2022-08-26T13:06:16.701Z,3.45
2022-08-26T13:08:48.128Z,3.33
2022-08-26T13:11:25.025Z,2.70
2022-08-26T13:14:00.728Z,3.03
2022-08-26T13:16:29.333Z,2.47
2022-08-26T13:18:59.116Z,2.70
2022-08-26T13:21:37.311Z,2.58
2022-08-26T13:24:14.148Z,2.28
2022-08-26T13:26:44.822Z,2.08
2022-08-26T13:29:12.771Z,2.42
2022-08-26T13:31:42.167Z,2.40
2022-08-26T13:34:12.216Z,2.15
2022-08-26T13:36:39.291Z,2.42
2022-08-26T13:39:06.530Z,3.80
2022-08-26T13:41:33.490Z,2.45
2022-08-26T13:44:00.336Z,2.08
2022-08-26T13:46:28.359Z,3.00
2022-08-26T13:48:56.964Z,2.85
2022-08-26T13:51:26.050Z,2.10
2022-08-26T13:53:53.343Z,2.50
2022-08-26T13:56:23.022Z,3.15
2022-08-26T13:58:50.021Z,2.78
2022-08-26T14:01:17.475Z,2.25
2022-08-26T14:03:44.669Z,2.10
2022-08-26T14:06:12.501Z,2.80
2022-08-26T14:08:40.043Z,2.83
2022-08-26T14:11:07.079Z,1.98
2022-08-26T14:13:34.126Z,2.03
2022-08-26T14:16:04.453Z,2.22
2022-08-26T14:18:38.405Z,2.75
2022-08-26T14:21:08.801Z,2.42
2022-08-26T14:23:35.738Z,2.65
2022-08-26T14:26:08.139Z,3.03
2022-08-26T14:28:36.257Z,2.60
2022-08-26T14:31:04.514Z,2.38
2022-08-26T14:33:37.280Z,2.40
2022-08-26T14:36:26.704Z,2.58
2022-08-26T14:38:55.684Z,2.38
2022-08-26T14:41:25.158Z,2.38
2022-08-26T14:44:00.188Z,2.30
2022-08-26T14:46:32.510Z,2.28
2022-08-26T14:49:02.447Z,2.35
2022-08-26T14:51:30.356Z,2.03
2022-08-26T14:54:12.183Z,3.08
2022-08-26T14:56:51.323Z,2.92
2022-08-26T14:59:24.006Z,2.40
2022-08-26T15:01:51.979Z,2.50
2022-08-26T15:04:19.636Z,2.50
2022-08-26T15:06:46.949Z,2.58
2022-08-26T15:09:13.937Z,2.67
2022-08-26T15:11:40.815Z,3.35
2022-08-26T15:14:07.968Z,2.47
2022-08-26T15:16:47.303Z,2.70
2022-08-26T15:19:15.410Z,2.58
2022-08-26T15:21:43.358Z,2.78
2022-08-26T15:24:10.168Z,2.15
2022-08-26T15:26:37.062Z,2.47
2022-08-26T15:29:05.273Z,2.42
2022-08-26T15:31:36.103Z,2.97
2022-08-26T15:34:08.553Z,2.67
2022-08-26T15:36:38.570Z,4.75
2022-08-26T15:39:07.676Z,2.40
2022-08-26T15:41:34.742Z,2.67
2022-08-26T15:44:03.533Z,3.15
2022-08-26T15:46:31.572Z,2.80
2022-08-26T15:48:58.625Z,2.80
2022-08-26T15:51:28.339Z,2.80
2022-08-26T15:53:59.083Z,2.20
2022-08-26T15:56:27.723Z,2.40
2022-08-26T15:58:56.253Z,2.92
2022-08-26T16:01:27.387Z,2.78
2022-08-26T16:03:56.148Z,2.88
2022-08-26T16:06:27.515Z,3.22
2022-08-26T16:08:56.172Z,2.55
2022-08-26T16:11:24.367Z,3.10
2022-08-26T16:13:51.631Z,2.47
2022-08-26T16:16:19.079Z,2.25
2022-08-26T16:18:46.116Z,2.78
2022-08-26T16:21:22.598Z,2.22
2022-08-26T16:23:49.923Z,2.65
2022-08-26T16:26:24.332Z,3.40
2022-08-26T16:28:51.152Z,2.10
2022-08-26T16:31:18.714Z,2.40
2022-08-26T16:33:46.335Z,2.20
2022-08-26T16:36:14.205Z,2.42
2022-08-26T16:38:41.854Z,3.00
2022-08-26T16:41:09.319Z,3.25
2022-08-26T16:43:36.840Z,2.67
2022-08-26T16:46:07.037Z,2.67
2022-08-26T16:48:35.295Z,3.03
2022-08-26T16:51:02.269Z,2.53
2022-08-26T16:53:29.074Z,2.95
2022-08-26T16:55:55.881Z,2.65
2022-08-26T16:58:22.739Z,3.58
2022-08-26T17:00:49.902Z,3.17
2022-08-26T17:03:16.930Z,3.90
2022-08-26T17:05:43.699Z,4.28
2022-08-26T17:08:10.834Z,4.78
2022-08-26T17:10:37.986Z,5.25
2022-08-26T17:13:05.091Z,5.13
2022-08-26T17:15:32.522Z,4.82
2022-08-26T17:17:59.439Z,4.05
2022-08-26T17:20:26.705Z,4.18
2022-08-26T17:22:55.044Z,4.25
2022-08-26T17:25:28.440Z,2.97
2022-08-26T17:30:27.954Z,3.92
2022-08-26T17:32:57.674Z,4.97
2022-08-26T17:35:24.750Z,4.43
2022-08-26T17:37:52.721Z,5.60
2022-08-26T17:40:24.339Z,6.20
2022-08-26T17:42:51.893Z,6.00
2022-08-26T17:47:50.693Z,6.30
2022-08-26T17:50:18.615Z,4.13
2022-08-26T17:52:46.719Z,4.22
2022-08-26T17:55:16.854Z,4.05
2022-08-26T17:57:44.546Z,4.43
2022-08-26T18:00:23.537Z,4.13
2022-08-26T18:02:50.347Z,3.83
2022-08-26T18:05:17.856Z,3.97
2022-08-26T18:07:44.919Z,3.13
2022-08-26T18:10:15.420Z,3.97
2022-08-26T18:12:43.050Z,3.13
2022-08-26T18:15:11.981Z,4.63
2022-08-26T18:17:39.576Z,3.63
2022-08-26T18:20:12.686Z,4.60
2022-08-26T18:22:39.905Z,4.73
2022-08-26T18:25:08.086Z,5.53
2022-08-26T18:27:37.991Z,4.88
2022-08-26T18:30:09.815Z,4.97
2022-08-26T18:32:39.304Z,3.85
2022-08-26T18:35:06.806Z,4.18
2022-08-26T18:37:34.318Z,4.07
2022-08-26T18:40:01.269Z,4.15
2022-08-26T18:42:28.829Z,3.60
2022-08-26T18:44:55.652Z,5.55
2022-08-26T18:47:22.879Z,4.53
2022-08-26T18:49:49.836Z,4.70
2022-08-26T18:52:16.953Z,5.32
2022-08-26T18:54:44.229Z,3.78
2022-08-26T18:57:12.217Z,4.07
2022-08-26T18:59:39.151Z,3.53
2022-08-26T19:02:06.142Z,3.55
2022-08-26T19:04:33.191Z,3.47
2022-08-26T19:07:00.190Z,3.83
2022-08-26T19:09:27.396Z,3.42
2022-08-26T19:14:26.659Z,3.38
2022-08-26T19:16:53.911Z,3.28
2022-08-26T19:19:24.108Z,4.05
2022-08-26T19:21:51.906Z,2.83
2022-08-26T19:24:19.962Z,3.50
2022-08-26T19:26:51.428Z,3.42
2022-08-26T19:29:26.901Z,4.80
2022-08-26T19:31:53.887Z,3.00
2022-08-26T19:34:21.068Z,3.42
2022-08-26T19:36:48.773Z,3.10
2022-08-26T19:39:15.740Z,3.75
2022-08-26T19:41:42.721Z,3.20
2022-08-26T19:44:13.133Z,3.28
2022-08-26T19:46:40.629Z,3.78
2022-08-26T19:49:07.499Z,3.85
2022-08-26T19:51:35.610Z,4.35
2022-08-26T19:54:02.897Z,3.75
2022-08-26T19:56:29.827Z,3.60
2022-08-26T19:58:57.118Z,4.10
2022-08-26T20:01:24.281Z,3.53
2022-08-26T20:03:51.462Z,4.05
2022-08-26T20:06:20.406Z,4.22
2022-08-26T20:08:47.602Z,3.45
2022-08-26T20:11:18.978Z,3.63
2022-08-26T20:13:47.191Z,4.07
2022-08-26T20:16:15.394Z,3.97
2022-08-26T20:19:02.151Z,4.30
2022-08-26T20:21:34.142Z,4.60
2022-08-26T20:24:14.943Z,4.63
2022-08-26T20:26:43.665Z,3.80
2022-08-26T20:29:13.320Z,3.78
2022-08-26T20:31:40.961Z,3.40
2022-08-26T20:34:07.970Z,4.13
2022-08-26T20:36:35.072Z,4.90
2022-08-26T20:39:02.391Z,3.78
2022-08-26T20:41:29.298Z,5.38
2022-08-26T20:43:56.631Z,5.88
2022-08-26T20:46:25.228Z,4.28
2022-08-26T20:48:53.646Z,5.18
2022-08-26T20:51:23.598Z,4.35
2022-08-26T20:53:51.136Z,4.13
2022-08-26T20:56:23.624Z,4.93
2022-08-26T20:58:58.438Z,3.83
2022-08-26T21:01:30.618Z,4.93
2022-08-26T21:03:57.562Z,4.22
2022-08-26T21:06:24.390Z,3.97
2022-08-26T21:08:51.417Z,4.32
2022-08-26T21:11:20.535Z,4.28
2022-08-26T21:14:04.406Z,5.00
2022-08-26T21:16:36.759Z,5.05
2022-08-26T21:19:08.470Z,4.55
2022-08-26T21:21:35.343Z,4.70
2022-08-26T21:24:03.131Z,4.90
2022-08-26T21:26:29.906Z,5.30
2022-08-26T21:28:56.766Z,4.80
2022-08-26T21:31:25.206Z,4.28
2022-08-26T21:33:52.678Z,5.15
2022-08-26T21:36:19.657Z,4.90
2022-08-26T21:38:46.455Z,5.63
2022-08-26T21:41:19.387Z,4.57
2022-08-26T21:43:47.896Z,4.70
2022-08-26T21:46:18.032Z,4.57
2022-08-26T21:48:59.049Z,4.70
2022-08-26T21:51:28.645Z,5.00
2022-08-26T21:53:57.230Z,5.40
2022-08-26T21:56:27.941Z,5.45
2022-08-26T21:58:56.429Z,4.70
2022-08-26T22:01:26.007Z,5.60
2022-08-26T22:03:53.596Z,5.13
2022-08-26T22:06:24.008Z,5.20
2022-08-26T22:08:51.814Z,5.05
2022-08-26T22:11:18.966Z,4.97
2022-08-26T22:13:46.862Z,4.45
2022-08-26T22:16:14.834Z,5.50
2022-08-26T22:18:45.877Z,4.82
2022-08-26T22:21:24.865Z,4.60
2022-08-26T22:23:52.587Z,4.22
2022-08-26T22:26:27.366Z,5.22
2022-08-26T22:28:55.592Z,4.88
2022-08-26T22:31:36.921Z,5.00
2022-08-26T22:34:08.337Z,5.13
2022-08-26T22:36:36.132Z,4.55
2022-08-26T22:39:10.405Z,4.93
2022-08-26T22:41:40.035Z,4.68
2022-08-26T22:44:07.524Z,4.28
2022-08-26T22:46:36.689Z,4.75
2022-08-26T22:49:04.866Z,4.35
2022-08-26T22:51:32.205Z,4.70
2022-08-26T22:53:59.321Z,4.82
2022-08-26T22:56:26.204Z,5.43
2022-08-26T22:58:53.143Z,5.32
2022-08-26T23:01:20.041Z,6.50
2022-08-26T23:03:47.030Z,6.75
2022-08-26T23:06:13.860Z,5.60
2022-08-26T23:08:41.932Z,6.22
2022-08-26T23:11:10.625Z,6.18
2022-08-26T23:13:39.095Z,5.45
2022-08-26T23:16:09.289Z,7.22
2022-08-26T23:18:36.747Z,6.32
2022-08-26T23:21:03.920Z,7.43
2022-08-26T23:23:31.167Z,7.40
2022-08-26T23:25:58.415Z,6.90
2022-08-26T23:28:26.427Z,6.03
2022-08-26T23:30:54.021Z,5.40
2022-08-26T23:33:21.197Z,7.07
2022-08-26T23:35:48.181Z,6.22
2022-08-26T23:38:16.275Z,6.45
2022-08-26T23:40:43.088Z,6.53
2022-08-26T23:43:13.574Z,6.88
2022-08-26T23:45:40.443Z,6.57
2022-08-26T23:48:07.589Z,5.45
2022-08-26T23:50:53.105Z,5.70
2022-08-26T23:53:22.289Z,4.80
2022-08-26T23:55:51.271Z,4.35
2022-08-26T23:58:19.913Z,5.70
